sensor_id;sensor_type;location;lat;lon;timestamp;P1;durP1;ratioP1;P2;durP2;ratioP2
3769;SDS011;1900;48.890;9.190;2022-12-07T00:00:49;9.97;;;7.63;;
3769;SDS011;1900;48.890;9.190;2022-12-07T00:03:14;10.83;;;7.40;;
3769;SDS011;1900;48.890;9.190;2022-12-07T00:05:40;8.73;;;6.37;;
3769;SDS011;1900;48.890;9.190;2022-12-07T00:08:06;10.33;;;6.83;;
3769;SDS011;1900;48.890;9.190;2022-12-07T00:10:33;10.70;;;7.37;;
3769;SDS011;1900;48.890;9.190;2022-12-07T00:12:59;8.50;;;6.50;;
3769;SDS011;1900;48.890;9.190;2022-12-07T00:15:25;10.13;;;7.17;;
3769;SDS011;1900;48.890;9.190;2022-12-07T00:17:50;8.17;;;6.20;;
3769;SDS011;1900;48.890;9.190;2022-12-07T00:20:16;8.47;;;6.60;;
3769;SDS011;1900;48.890;9.190;2022-12-07T00:22:42;9.87;;;6.50;;
3769;SDS011;1900;48.890;9.190;2022-12-07T00:25:07;7.97;;;5.97;;
3769;SDS011;1900;48.890;9.190;2022-12-07T00:27:33;9.17;;;6.53;;
3769;SDS011;1900;48.890;9.190;2022-12-07T00:29:59;6.80;;;5.40;;
3769;SDS011;1900;48.890;9.190;2022-12-07T00:32:24;8.60;;;6.80;;
3769;SDS011;1900;48.890;9.190;2022-12-07T00:34:51;11.07;;;7.10;;
3769;SDS011;1900;48.890;9.190;2022-12-07T00:37:16;8.53;;;6.90;;
3769;SDS011;1900;48.890;9.190;2022-12-07T00:39:42;9.97;;;6.90;;
3769;SDS011;1900;48.890;9.190;2022-12-07T00:42:08;13.00;;;6.77;;
3769;SDS011;1900;48.890;9.190;2022-12-07T00:44:33;8.07;;;6.30;;
3769;SDS011;1900;48.890;9.190;2022-12-07T00:46:59;8.50;;;7.10;;
3769;SDS011;1900;48.890;9.190;2022-12-07T00:49:25;11.83;;;7.50;;
3769;SDS011;1900;48.890;9.190;2022-12-07T00:51:50;9.00;;;6.47;;
3769;SDS011;1900;48.890;9.190;2022-12-07T00:54:18;8.97;;;7.20;;
3769;SDS011;1900;48.890;9.190;2022-12-07T00:56:44;10.40;;;7.37;;
3769;SDS011;1900;48.890;9.190;2022-12-07T00:59:10;9.73;;;6.83;;
3769;SDS011;1900;48.890;9.190;2022-12-07T01:01:39;9.67;;;6.63;;
3769;SDS011;1900;48.890;9.190;2022-12-07T01:04:04;7.27;;;6.50;;
3769;SDS011;1900;48.890;9.190;2022-12-07T01:06:30;9.10;;;6.60;;
3769;SDS011;1900;48.890;9.190;2022-12-07T01:08:56;11.90;;;6.80;;
3769;SDS011;1900;48.890;9.190;2022-12-07T01:11:23;11.90;;;7.20;;
3769;SDS011;1900;48.890;9.190;2022-12-07T01:13:51;10.53;;;7.17;;
3769;SDS011;1900;48.890;9.190;2022-12-07T01:16:19;9.40;;;6.40;;
3769;SDS011;1900;48.890;9.190;2022-12-07T01:18:46;11.13;;;7.20;;
3769;SDS011;1900;48.890;9.190;2022-12-07T01:21:23;10.00;;;7.33;;
3769;SDS011;1900;48.890;9.190;2022-12-07T01:23:51;13.40;;;8.30;;
3769;SDS011;1900;48.890;9.190;2022-12-07T01:26:18;12.37;;;7.37;;
3769;SDS011;1900;48.890;9.190;2022-12-07T01:28:46;10.37;;;8.03;;
3769;SDS011;1900;48.890;9.190;2022-12-07T01:31:13;12.10;;;7.60;;
3769;SDS011;1900;48.890;9.190;2022-12-07T01:33:41;13.97;;;7.47;;
3769;SDS011;1900;48.890;9.190;2022-12-07T01:36:15;12.60;;;8.33;;
3769;SDS011;1900;48.890;9.190;2022-12-07T01:38:50;12.17;;;7.90;;
3769;SDS011;1900;48.890;9.190;2022-12-07T01:41:17;11.30;;;6.80;;
3769;SDS011;1900;48.890;9.190;2022-12-07T01:46:45;10.17;;;6.87;;
3769;SDS011;1900;48.890;9.190;2022-12-07T01:52:09;12.20;;;7.30;;
3769;SDS011;1900;48.890;9.190;2022-12-07T01:54:56;11.93;;;7.10;;
3769;SDS011;1900;48.890;9.190;2022-12-07T01:57:27;8.30;;;6.23;;
3769;SDS011;1900;48.890;9.190;2022-12-07T01:59:54;11.37;;;7.50;;
3769;SDS011;1900;48.890;9.190;2022-12-07T02:02:26;9.13;;;7.10;;
3769;SDS011;1900;48.890;9.190;2022-12-07T02:04:57;10.87;;;7.07;;
3769;SDS011;1900;48.890;9.190;2022-12-07T02:07:25;9.43;;;6.53;;
3769;SDS011;1900;48.890;9.190;2022-12-07T02:09:51;9.60;;;7.17;;
3769;SDS011;1900;48.890;9.190;2022-12-07T02:12:17;13.37;;;7.47;;
3769;SDS011;1900;48.890;9.190;2022-12-07T02:14:44;11.27;;;7.40;;
3769;SDS011;1900;48.890;9.190;2022-12-07T02:25:13;11.93;;;7.93;;
3769;SDS011;1900;48.890;9.190;2022-12-07T02:30:40;10.60;;;7.00;;
3769;SDS011;1900;48.890;9.190;2022-12-07T02:33:16;9.97;;;7.20;;
3769;SDS011;1900;48.890;9.190;2022-12-07T02:35:54;11.13;;;7.83;;
3769;SDS011;1900;48.890;9.190;2022-12-07T02:44:08;10.87;;;7.20;;
3769;SDS011;1900;48.890;9.190;2022-12-07T02:46:40;9.20;;;6.80;;
3769;SDS011;1900;48.890;9.190;2022-12-07T02:49:09;10.77;;;6.50;;
3769;SDS011;1900;48.890;9.190;2022-12-07T02:51:40;14.50;;;7.67;;
3769;SDS011;1900;48.890;9.190;2022-12-07T02:54:16;11.07;;;7.00;;
3769;SDS011;1900;48.890;9.190;2022-12-07T02:56:46;12.43;;;7.60;;
3769;SDS011;1900;48.890;9.190;2022-12-07T03:07:38;9.90;;;6.90;;
3769;SDS011;1900;48.890;9.190;2022-12-07T03:18:34;9.80;;;7.20;;
3769;SDS011;1900;48.890;9.190;2022-12-07T03:21:11;8.53;;;6.40;;
3769;SDS011;1900;48.890;9.190;2022-12-07T03:23:42;9.67;;;7.20;;
3769;SDS011;1900;48.890;9.190;2022-12-07T03:26:12;12.00;;;7.27;;
3769;SDS011;1900;48.890;9.190;2022-12-07T03:28:40;11.47;;;6.83;;
3769;SDS011;1900;48.890;9.190;2022-12-07T03:31:14;12.70;;;6.80;;
3769;SDS011;1900;48.890;9.190;2022-12-07T03:36:26;10.17;;;7.10;;
3769;SDS011;1900;48.890;9.190;2022-12-07T03:41:54;12.00;;;7.30;;
3769;SDS011;1900;48.890;9.190;2022-12-07T03:44:21;10.03;;;7.30;;
3769;SDS011;1900;48.890;9.190;2022-12-07T03:55:06;12.03;;;7.17;;
3769;SDS011;1900;48.890;9.190;2022-12-07T03:57:46;12.17;;;7.63;;
3769;SDS011;1900;48.890;9.190;2022-12-07T04:00:14;11.40;;;7.50;;
3769;SDS011;1900;48.890;9.190;2022-12-07T04:02:41;18.43;;;8.10;;
3769;SDS011;1900;48.890;9.190;2022-12-07T04:05:07;11.00;;;7.07;;
3769;SDS011;1900;48.890;9.190;2022-12-07T04:07:34;11.53;;;7.40;;
3769;SDS011;1900;48.890;9.190;2022-12-07T04:09:59;10.90;;;7.53;;
3769;SDS011;1900;48.890;9.190;2022-12-07T04:12:25;10.10;;;6.73;;
3769;SDS011;1900;48.890;9.190;2022-12-07T04:14:51;10.60;;;7.73;;
3769;SDS011;1900;48.890;9.190;2022-12-07T04:17:19;12.50;;;7.67;;
3769;SDS011;1900;48.890;9.190;2022-12-07T04:19:45;9.90;;;7.80;;
3769;SDS011;1900;48.890;9.190;2022-12-07T04:22:10;13.60;;;7.00;;
3769;SDS011;1900;48.890;9.190;2022-12-07T04:24:36;20.67;;;8.30;;
3769;SDS011;1900;48.890;9.190;2022-12-07T04:27:02;10.57;;;7.80;;
3769;SDS011;1900;48.890;9.190;2022-12-07T04:29:28;9.33;;;6.40;;
3769;SDS011;1900;48.890;9.190;2022-12-07T04:31:54;13.50;;;7.90;;
3769;SDS011;1900;48.890;9.190;2022-12-07T04:34:19;11.83;;;7.80;;
3769;SDS011;1900;48.890;9.190;2022-12-07T04:36:46;16.77;;;8.10;;
3769;SDS011;1900;48.890;9.190;2022-12-07T04:39:23;13.23;;;9.00;;
3769;SDS011;1900;48.890;9.190;2022-12-07T04:41:50;13.37;;;8.00;;
3769;SDS011;1900;48.890;9.190;2022-12-07T04:44:16;11.80;;;7.70;;
3769;SDS011;1900;48.890;9.190;2022-12-07T04:46:43;11.60;;;7.40;;
3769;SDS011;1900;48.890;9.190;2022-12-07T04:49:10;12.63;;;6.90;;
3769;SDS011;1900;48.890;9.190;2022-12-07T04:51:37;10.27;;;7.40;;
3769;SDS011;1900;48.890;9.190;2022-12-07T04:54:03;10.80;;;8.50;;
3769;SDS011;1900;48.890;9.190;2022-12-07T04:56:29;11.77;;;8.00;;
3769;SDS011;1900;48.890;9.190;2022-12-07T04:58:54;11.07;;;7.30;;
3769;SDS011;1900;48.890;9.190;2022-12-07T05:01:20;11.07;;;7.37;;
3769;SDS011;1900;48.890;9.190;2022-12-07T05:03:47;12.70;;;7.50;;
3769;SDS011;1900;48.890;9.190;2022-12-07T05:06:13;11.20;;;8.90;;
3769;SDS011;1900;48.890;9.190;2022-12-07T05:08:39;10.27;;;7.87;;
3769;SDS011;1900;48.890;9.190;2022-12-07T05:11:06;9.77;;;7.00;;
3769;SDS011;1900;48.890;9.190;2022-12-07T05:13:32;11.50;;;7.53;;
3769;SDS011;1900;48.890;9.190;2022-12-07T05:15:58;10.70;;;6.90;;
3769;SDS011;1900;48.890;9.190;2022-12-07T05:18:24;13.63;;;7.23;;
3769;SDS011;1900;48.890;9.190;2022-12-07T05:20:50;12.80;;;7.70;;
3769;SDS011;1900;48.890;9.190;2022-12-07T05:23:16;9.27;;;7.73;;
3769;SDS011;1900;48.890;9.190;2022-12-07T05:25:42;12.00;;;8.20;;
3769;SDS011;1900;48.890;9.190;2022-12-07T05:28:09;12.90;;;8.23;;
3769;SDS011;1900;48.890;9.190;2022-12-07T05:30:34;9.83;;;7.33;;
3769;SDS011;1900;48.890;9.190;2022-12-07T05:33:00;9.23;;;6.90;;
3769;SDS011;1900;48.890;9.190;2022-12-07T05:35:26;9.80;;;6.50;;
3769;SDS011;1900;48.890;9.190;2022-12-07T05:37:51;12.17;;;6.97;;
3769;SDS011;1900;48.890;9.190;2022-12-07T05:40:17;13.97;;;8.43;;
3769;SDS011;1900;48.890;9.190;2022-12-07T05:42:44;16.40;;;8.30;;
3769;SDS011;1900;48.890;9.190;2022-12-07T05:45:09;12.30;;;7.83;;
3769;SDS011;1900;48.890;9.190;2022-12-07T05:47:35;11.87;;;7.80;;
3769;SDS011;1900;48.890;9.190;2022-12-07T05:50:02;13.23;;;7.30;;
3769;SDS011;1900;48.890;9.190;2022-12-07T05:52:28;10.97;;;7.60;;
3769;SDS011;1900;48.890;9.190;2022-12-07T05:54:54;10.20;;;7.40;;
3769;SDS011;1900;48.890;9.190;2022-12-07T05:57:19;14.70;;;7.80;;
3769;SDS011;1900;48.890;9.190;2022-12-07T05:59:45;13.00;;;7.40;;
3769;SDS011;1900;48.890;9.190;2022-12-07T06:02:12;11.67;;;8.00;;
3769;SDS011;1900;48.890;9.190;2022-12-07T06:04:42;13.33;;;7.73;;
3769;SDS011;1900;48.890;9.190;2022-12-07T06:07:11;10.53;;;7.63;;
3769;SDS011;1900;48.890;9.190;2022-12-07T06:09:38;11.93;;;6.77;;
3769;SDS011;1900;48.890;9.190;2022-12-07T06:12:05;13.70;;;8.27;;
3769;SDS011;1900;48.890;9.190;2022-12-07T06:14:50;10.07;;;6.60;;
3769;SDS011;1900;48.890;9.190;2022-12-07T06:17:19;12.93;;;7.70;;
3769;SDS011;1900;48.890;9.190;2022-12-07T06:19:44;11.10;;;7.03;;
3769;SDS011;1900;48.890;9.190;2022-12-07T06:22:10;9.60;;;7.37;;
3769;SDS011;1900;48.890;9.190;2022-12-07T06:24:36;12.70;;;7.50;;
3769;SDS011;1900;48.890;9.190;2022-12-07T06:27:03;15.13;;;7.83;;
3769;SDS011;1900;48.890;9.190;2022-12-07T06:29:29;15.57;;;8.93;;
3769;SDS011;1900;48.890;9.190;2022-12-07T06:31:55;12.37;;;7.03;;
3769;SDS011;1900;48.890;9.190;2022-12-07T06:34:22;12.87;;;8.30;;
3769;SDS011;1900;48.890;9.190;2022-12-07T06:36:49;18.30;;;8.47;;
3769;SDS011;1900;48.890;9.190;2022-12-07T06:39:21;16.87;;;8.50;;
3769;SDS011;1900;48.890;9.190;2022-12-07T06:41:48;9.53;;;6.30;;
3769;SDS011;1900;48.890;9.190;2022-12-07T06:44:14;11.03;;;6.73;;
3769;SDS011;1900;48.890;9.190;2022-12-07T06:46:40;9.87;;;6.10;;
3769;SDS011;1900;48.890;9.190;2022-12-07T06:49:05;16.47;;;6.40;;
3769;SDS011;1900;48.890;9.190;2022-12-07T06:51:32;13.07;;;7.13;;
3769;SDS011;1900;48.890;9.190;2022-12-07T06:54:00;6.83;;;5.00;;
3769;SDS011;1900;48.890;9.190;2022-12-07T06:56:25;9.80;;;6.03;;
3769;SDS011;1900;48.890;9.190;2022-12-07T06:58:51;8.67;;;6.03;;
3769;SDS011;1900;48.890;9.190;2022-12-07T07:01:17;12.70;;;6.80;;
3769;SDS011;1900;48.890;9.190;2022-12-07T07:03:44;9.07;;;6.50;;
3769;SDS011;1900;48.890;9.190;2022-12-07T07:06:10;9.03;;;6.40;;
3769;SDS011;1900;48.890;9.190;2022-12-07T07:08:37;9.33;;;6.47;;
3769;SDS011;1900;48.890;9.190;2022-12-07T07:11:04;11.60;;;6.53;;
3769;SDS011;1900;48.890;9.190;2022-12-07T07:13:30;15.63;;;7.50;;
3769;SDS011;1900;48.890;9.190;2022-12-07T07:15:56;11.93;;;7.70;;
3769;SDS011;1900;48.890;9.190;2022-12-07T07:18:23;15.37;;;8.17;;
3769;SDS011;1900;48.890;9.190;2022-12-07T07:20:50;13.27;;;5.93;;
3769;SDS011;1900;48.890;9.190;2022-12-07T07:23:16;8.43;;;6.20;;
3769;SDS011;1900;48.890;9.190;2022-12-07T07:25:42;11.90;;;6.57;;
3769;SDS011;1900;48.890;9.190;2022-12-07T07:28:09;10.43;;;6.13;;
3769;SDS011;1900;48.890;9.190;2022-12-07T07:30:34;11.90;;;6.83;;
3769;SDS011;1900;48.890;9.190;2022-12-07T07:33:00;10.00;;;7.27;;
3769;SDS011;1900;48.890;9.190;2022-12-07T07:35:27;11.90;;;6.83;;
3769;SDS011;1900;48.890;9.190;2022-12-07T07:37:55;10.93;;;6.70;;
3769;SDS011;1900;48.890;9.190;2022-12-07T07:40:21;11.87;;;7.50;;
3769;SDS011;1900;48.890;9.190;2022-12-07T07:42:50;17.93;;;6.80;;
3769;SDS011;1900;48.890;9.190;2022-12-07T07:45:17;13.00;;;7.00;;
3769;SDS011;1900;48.890;9.190;2022-12-07T07:47:44;11.83;;;6.60;;
3769;SDS011;1900;48.890;9.190;2022-12-07T07:50:09;8.23;;;6.10;;
3769;SDS011;1900;48.890;9.190;2022-12-07T07:52:36;12.63;;;6.23;;
3769;SDS011;1900;48.890;9.190;2022-12-07T07:55:02;13.70;;;7.10;;
3769;SDS011;1900;48.890;9.190;2022-12-07T07:57:28;8.77;;;6.40;;
3769;SDS011;1900;48.890;9.190;2022-12-07T07:59:53;12.30;;;6.70;;
3769;SDS011;1900;48.890;9.190;2022-12-07T08:02:19;10.03;;;6.63;;
3769;SDS011;1900;48.890;9.190;2022-12-07T08:04:46;15.10;;;8.70;;
3769;SDS011;1900;48.890;9.190;2022-12-07T08:07:12;15.27;;;6.97;;
3769;SDS011;1900;48.890;9.190;2022-12-07T08:09:38;10.17;;;6.77;;
3769;SDS011;1900;48.890;9.190;2022-12-07T08:12:04;11.40;;;7.30;;
3769;SDS011;1900;48.890;9.190;2022-12-07T08:14:30;12.93;;;7.80;;
3769;SDS011;1900;48.890;9.190;2022-12-07T08:16:56;15.80;;;7.93;;
3769;SDS011;1900;48.890;9.190;2022-12-07T08:19:22;10.87;;;7.50;;
3769;SDS011;1900;48.890;9.190;2022-12-07T08:21:47;11.70;;;7.73;;
3769;SDS011;1900;48.890;9.190;2022-12-07T08:24:13;12.30;;;6.70;;
3769;SDS011;1900;48.890;9.190;2022-12-07T08:26:40;13.13;;;6.37;;
3769;SDS011;1900;48.890;9.190;2022-12-07T08:29:06;7.77;;;6.37;;
3769;SDS011;1900;48.890;9.190;2022-12-07T08:31:32;9.57;;;5.97;;
3769;SDS011;1900;48.890;9.190;2022-12-07T08:33:58;9.23;;;6.67;;
3769;SDS011;1900;48.890;9.190;2022-12-07T08:36:24;12.73;;;6.70;;
3769;SDS011;1900;48.890;9.190;2022-12-07T08:38:49;9.87;;;6.20;;
3769;SDS011;1900;48.890;9.190;2022-12-07T08:41:15;11.23;;;5.90;;
3769;SDS011;1900;48.890;9.190;2022-12-07T08:43:41;9.90;;;6.17;;
3769;SDS011;1900;48.890;9.190;2022-12-07T08:48:57;12.53;;;6.67;;
3769;SDS011;1900;48.890;9.190;2022-12-07T08:51:29;13.90;;;7.10;;
3769;SDS011;1900;48.890;9.190;2022-12-07T08:53:55;13.20;;;7.63;;
3769;SDS011;1900;48.890;9.190;2022-12-07T08:56:23;11.00;;;6.10;;
3769;SDS011;1900;48.890;9.190;2022-12-07T08:58:49;7.57;;;5.60;;
3769;SDS011;1900;48.890;9.190;2022-12-07T09:01:15;8.67;;;5.80;;
3769;SDS011;1900;48.890;9.190;2022-12-07T09:03:41;10.83;;;7.00;;
3769;SDS011;1900;48.890;9.190;2022-12-07T09:06:07;10.57;;;5.80;;
3769;SDS011;1900;48.890;9.190;2022-12-07T09:08:34;9.70;;;5.57;;
3769;SDS011;1900;48.890;9.190;2022-12-07T09:11:02;9.87;;;5.50;;
3769;SDS011;1900;48.890;9.190;2022-12-07T09:13:28;7.47;;;5.50;;
3769;SDS011;1900;48.890;9.190;2022-12-07T09:15:54;10.13;;;5.70;;
3769;SDS011;1900;48.890;9.190;2022-12-07T09:18:19;6.60;;;5.13;;
3769;SDS011;1900;48.890;9.190;2022-12-07T09:20:45;8.83;;;4.90;;
3769;SDS011;1900;48.890;9.190;2022-12-07T09:23:11;9.53;;;5.30;;
3769;SDS011;1900;48.890;9.190;2022-12-07T09:25:36;8.80;;;4.27;;
3769;SDS011;1900;48.890;9.190;2022-12-07T09:28:02;10.30;;;4.77;;
3769;SDS011;1900;48.890;9.190;2022-12-07T09:30:28;7.83;;;4.60;;
3769;SDS011;1900;48.890;9.190;2022-12-07T09:32:54;9.43;;;4.00;;
3769;SDS011;1900;48.890;9.190;2022-12-07T09:35:21;7.00;;;4.70;;
3769;SDS011;1900;48.890;9.190;2022-12-07T09:37:47;8.77;;;4.43;;
3769;SDS011;1900;48.890;9.190;2022-12-07T09:40:13;8.77;;;4.80;;
3769;SDS011;1900;48.890;9.190;2022-12-07T09:42:41;6.50;;;4.60;;
3769;SDS011;1900;48.890;9.190;2022-12-07T09:45:14;8.93;;;5.17;;
3769;SDS011;1900;48.890;9.190;2022-12-07T09:47:44;8.30;;;5.13;;
3769;SDS011;1900;48.890;9.190;2022-12-07T09:50:12;8.77;;;4.63;;
3769;SDS011;1900;48.890;9.190;2022-12-07T09:52:44;8.33;;;5.57;;
3769;SDS011;1900;48.890;9.190;2022-12-07T09:55:15;8.70;;;5.23;;
3769;SDS011;1900;48.890;9.190;2022-12-07T09:57:49;9.40;;;5.27;;
3769;SDS011;1900;48.890;9.190;2022-12-07T10:00:17;8.33;;;4.57;;
3769;SDS011;1900;48.890;9.190;2022-12-07T10:02:51;9.00;;;4.60;;
3769;SDS011;1900;48.890;9.190;2022-12-07T10:05:30;6.37;;;4.80;;
3769;SDS011;1900;48.890;9.190;2022-12-07T10:07:59;9.53;;;4.37;;
3769;SDS011;1900;48.890;9.190;2022-12-07T10:10:28;7.20;;;4.53;;
3769;SDS011;1900;48.890;9.190;2022-12-07T10:12:57;5.63;;;4.10;;
3769;SDS011;1900;48.890;9.190;2022-12-07T10:18:26;6.27;;;4.43;;
3769;SDS011;1900;48.890;9.190;2022-12-07T10:21:00;9.17;;;5.13;;
3769;SDS011;1900;48.890;9.190;2022-12-07T10:23:41;6.40;;;4.50;;
3769;SDS011;1900;48.890;9.190;2022-12-07T10:29:12;7.50;;;4.10;;
3769;SDS011;1900;48.890;9.190;2022-12-07T10:31:46;4.73;;;3.40;;
3769;SDS011;1900;48.890;9.190;2022-12-07T10:36:47;3.90;;;3.37;;
3769;SDS011;1900;48.890;9.190;2022-12-07T10:39:23;8.40;;;3.90;;
3769;SDS011;1900;48.890;9.190;2022-12-07T10:44:32;5.47;;;3.70;;
3769;SDS011;1900;48.890;9.190;2022-12-07T10:57:56;9.13;;;4.37;;
3769;SDS011;1900;48.890;9.190;2022-12-07T11:03:32;6.50;;;4.67;;
3769;SDS011;1900;48.890;9.190;2022-12-07T11:09:37;8.30;;;5.23;;
3769;SDS011;1900;48.890;9.190;2022-12-07T11:11:38;6.17;;;4.33;;
3769;SDS011;1900;48.890;9.190;2022-12-07T11:14:40;6.53;;;4.27;;
3769;SDS011;1900;48.890;9.190;2022-12-07T11:20:13;5.33;;;4.00;;
3769;SDS011;1900;48.890;9.190;2022-12-07T11:22:51;7.97;;;4.77;;
3769;SDS011;1900;48.890;9.190;2022-12-07T11:25:32;7.40;;;4.93;;
3769;SDS011;1900;48.890;9.190;2022-12-07T11:36:38;8.50;;;6.00;;
3769;SDS011;1900;48.890;9.190;2022-12-07T11:41:39;11.33;;;6.07;;
3769;SDS011;1900;48.890;9.190;2022-12-07T11:49:47;11.47;;;6.70;;
3769;SDS011;1900;48.890;9.190;2022-12-07T11:53:09;10.10;;;6.33;;
3769;SDS011;1900;48.890;9.190;2022-12-07T11:58:18;11.57;;;6.60;;
3769;SDS011;1900;48.890;9.190;2022-12-07T12:00:46;10.27;;;6.63;;
3769;SDS011;1900;48.890;9.190;2022-12-07T12:03:23;11.63;;;6.90;;
3769;SDS011;1900;48.890;9.190;2022-12-07T12:05:58;16.80;;;10.47;;
3769;SDS011;1900;48.890;9.190;2022-12-07T12:08:28;10.60;;;6.60;;
3769;SDS011;1900;48.890;9.190;2022-12-07T12:14:03;11.23;;;6.33;;
3769;SDS011;1900;48.890;9.190;2022-12-07T12:17:01;10.67;;;7.00;;
3769;SDS011;1900;48.890;9.190;2022-12-07T12:19:42;11.23;;;6.67;;
3769;SDS011;1900;48.890;9.190;2022-12-07T12:22:39;10.37;;;6.50;;
3769;SDS011;1900;48.890;9.190;2022-12-07T12:27:53;12.10;;;6.80;;
3769;SDS011;1900;48.890;9.190;2022-12-07T12:33:14;8.80;;;6.20;;
3769;SDS011;1900;48.890;9.190;2022-12-07T12:38:51;9.23;;;5.53;;
3769;SDS011;1900;48.890;9.190;2022-12-07T12:51:50;9.53;;;6.00;;
3769;SDS011;1900;48.890;9.190;2022-12-07T12:57:01;10.80;;;7.27;;
3769;SDS011;1900;48.890;9.190;2022-12-07T13:02:34;9.63;;;5.97;;
3769;SDS011;1900;48.890;9.190;2022-12-07T13:07:57;18.43;;;7.67;;
3769;SDS011;1900;48.890;9.190;2022-12-07T13:20:49;12.10;;;7.60;;
3769;SDS011;1900;48.890;9.190;2022-12-07T13:23:24;11.97;;;8.87;;
3769;SDS011;1900;48.890;9.190;2022-12-07T13:26:35;15.03;;;7.97;;
3769;SDS011;1900;48.890;9.190;2022-12-07T13:28:47;12.63;;;8.63;;
3769;SDS011;1900;48.890;9.190;2022-12-07T13:33:43;16.23;;;8.40;;
3769;SDS011;1900;48.890;9.190;2022-12-07T13:36:21;15.00;;;9.50;;
3769;SDS011;1900;48.890;9.190;2022-12-07T13:38:56;16.90;;;10.77;;
3769;SDS011;1900;48.890;9.190;2022-12-07T13:41:35;17.13;;;9.80;;
3769;SDS011;1900;48.890;9.190;2022-12-07T13:46:44;18.33;;;9.13;;
3769;SDS011;1900;48.890;9.190;2022-12-07T13:49:20;13.17;;;8.13;;
3769;SDS011;1900;48.890;9.190;2022-12-07T13:51:51;16.80;;;8.17;;
3769;SDS011;1900;48.890;9.190;2022-12-07T13:54:18;15.50;;;8.47;;
3769;SDS011;1900;48.890;9.190;2022-12-07T13:56:47;12.17;;;8.63;;
3769;SDS011;1900;48.890;9.190;2022-12-07T13:59:16;13.20;;;7.77;;
3769;SDS011;1900;48.890;9.190;2022-12-07T14:01:47;17.43;;;8.60;;
3769;SDS011;1900;48.890;9.190;2022-12-07T14:06:52;14.80;;;7.97;;
3769;SDS011;1900;48.890;9.190;2022-12-07T14:09:24;14.83;;;9.10;;
3769;SDS011;1900;48.890;9.190;2022-12-07T14:11:55;15.30;;;9.13;;
3769;SDS011;1900;48.890;9.190;2022-12-07T14:14:31;16.03;;;8.50;;
3769;SDS011;1900;48.890;9.190;2022-12-07T14:16:58;14.97;;;8.20;;
3769;SDS011;1900;48.890;9.190;2022-12-07T14:19:46;13.33;;;7.87;;
3769;SDS011;1900;48.890;9.190;2022-12-07T14:27:48;17.07;;;8.93;;
3769;SDS011;1900;48.890;9.190;2022-12-07T14:30:21;11.80;;;7.90;;
3769;SDS011;1900;48.890;9.190;2022-12-07T14:32:50;13.97;;;8.13;;
3769;SDS011;1900;48.890;9.190;2022-12-07T14:35:19;17.17;;;9.07;;
3769;SDS011;1900;48.890;9.190;2022-12-07T14:37:46;15.33;;;8.60;;
3769;SDS011;1900;48.890;9.190;2022-12-07T14:40:20;27.37;;;14.33;;
3769;SDS011;1900;48.890;9.190;2022-12-07T14:42:50;24.00;;;11.33;;
3769;SDS011;1900;48.890;9.190;2022-12-07T14:45:20;20.07;;;10.97;;
3769;SDS011;1900;48.890;9.190;2022-12-07T14:47:47;22.60;;;9.77;;
3769;SDS011;1900;48.890;9.190;2022-12-07T14:50:14;19.10;;;9.83;;
3769;SDS011;1900;48.890;9.190;2022-12-07T14:52:42;14.83;;;8.37;;
3769;SDS011;1900;48.890;9.190;2022-12-07T14:55:16;13.13;;;8.20;;
3769;SDS011;1900;48.890;9.190;2022-12-07T14:57:48;13.87;;;8.70;;
3769;SDS011;1900;48.890;9.190;2022-12-07T15:00:15;18.47;;;8.30;;
3769;SDS011;1900;48.890;9.190;2022-12-07T15:02:42;15.07;;;8.60;;
3769;SDS011;1900;48.890;9.190;2022-12-07T15:05:11;18.43;;;9.40;;
3769;SDS011;1900;48.890;9.190;2022-12-07T15:07:38;13.33;;;8.00;;
3769;SDS011;1900;48.890;9.190;2022-12-07T15:10:04;14.33;;;9.10;;
3769;SDS011;1900;48.890;9.190;2022-12-07T15:12:38;11.83;;;8.03;;
3769;SDS011;1900;48.890;9.190;2022-12-07T15:15:03;17.23;;;8.63;;
3769;SDS011;1900;48.890;9.190;2022-12-07T15:17:29;10.47;;;6.93;;
3769;SDS011;1900;48.890;9.190;2022-12-07T15:19:55;11.63;;;7.97;;
3769;SDS011;1900;48.890;9.190;2022-12-07T15:22:21;14.03;;;7.40;;
3769;SDS011;1900;48.890;9.190;2022-12-07T15:24:46;13.70;;;8.30;;
3769;SDS011;1900;48.890;9.190;2022-12-07T15:27:12;13.30;;;9.40;;
3769;SDS011;1900;48.890;9.190;2022-12-07T15:29:38;18.87;;;9.23;;
3769;SDS011;1900;48.890;9.190;2022-12-07T15:32:03;18.30;;;9.93;;
3769;SDS011;1900;48.890;9.190;2022-12-07T15:34:29;17.93;;;9.27;;
3769;SDS011;1900;48.890;9.190;2022-12-07T15:36:56;15.60;;;9.83;;
3769;SDS011;1900;48.890;9.190;2022-12-07T15:39:22;17.07;;;9.43;;
3769;SDS011;1900;48.890;9.190;2022-12-07T15:41:48;13.70;;;8.73;;
3769;SDS011;1900;48.890;9.190;2022-12-07T15:44:14;16.07;;;10.50;;
3769;SDS011;1900;48.890;9.190;2022-12-07T15:46:59;19.23;;;10.37;;
3769;SDS011;1900;48.890;9.190;2022-12-07T15:49:25;24.63;;;10.17;;
3769;SDS011;1900;48.890;9.190;2022-12-07T15:51:52;20.17;;;10.80;;
3769;SDS011;1900;48.890;9.190;2022-12-07T15:54:25;16.13;;;10.47;;
3769;SDS011;1900;48.890;9.190;2022-12-07T15:56:52;18.00;;;9.90;;
3769;SDS011;1900;48.890;9.190;2022-12-07T15:59:19;20.50;;;11.83;;
3769;SDS011;1900;48.890;9.190;2022-12-07T16:01:45;16.50;;;9.27;;
3769;SDS011;1900;48.890;9.190;2022-12-07T16:04:11;18.07;;;10.93;;
3769;SDS011;1900;48.890;9.190;2022-12-07T16:06:37;18.70;;;10.50;;
3769;SDS011;1900;48.890;9.190;2022-12-07T16:09:04;18.53;;;9.17;;
3769;SDS011;1900;48.890;9.190;2022-12-07T16:11:30;15.07;;;9.23;;
3769;SDS011;1900;48.890;9.190;2022-12-07T16:13:56;16.03;;;9.07;;
3769;SDS011;1900;48.890;9.190;2022-12-07T16:16:22;16.17;;;9.57;;
3769;SDS011;1900;48.890;9.190;2022-12-07T16:18:48;22.00;;;10.13;;
3769;SDS011;1900;48.890;9.190;2022-12-07T16:21:15;15.10;;;9.77;;
3769;SDS011;1900;48.890;9.190;2022-12-07T16:23:41;16.47;;;9.83;;
3769;SDS011;1900;48.890;9.190;2022-12-07T16:26:08;15.10;;;8.73;;
3769;SDS011;1900;48.890;9.190;2022-12-07T16:28:53;15.20;;;9.60;;
3769;SDS011;1900;48.890;9.190;2022-12-07T16:31:21;17.40;;;10.13;;
3769;SDS011;1900;48.890;9.190;2022-12-07T16:33:50;20.07;;;10.27;;
3769;SDS011;1900;48.890;9.190;2022-12-07T16:36:18;20.73;;;11.50;;
3769;SDS011;1900;48.890;9.190;2022-12-07T16:38:44;19.27;;;9.77;;
3769;SDS011;1900;48.890;9.190;2022-12-07T16:41:10;19.03;;;10.90;;
3769;SDS011;1900;48.890;9.190;2022-12-07T16:43:36;17.73;;;11.17;;
3769;SDS011;1900;48.890;9.190;2022-12-07T16:46:02;18.50;;;11.20;;
3769;SDS011;1900;48.890;9.190;2022-12-07T16:48:29;14.93;;;10.20;;
3769;SDS011;1900;48.890;9.190;2022-12-07T16:50:55;15.40;;;8.53;;
3769;SDS011;1900;48.890;9.190;2022-12-07T16:53:21;14.33;;;7.93;;
3769;SDS011;1900;48.890;9.190;2022-12-07T16:55:48;14.87;;;9.20;;
3769;SDS011;1900;48.890;9.190;2022-12-07T16:58:16;18.67;;;9.90;;
3769;SDS011;1900;48.890;9.190;2022-12-07T17:00:42;18.40;;;9.60;;
3769;SDS011;1900;48.890;9.190;2022-12-07T17:03:09;17.20;;;9.17;;
3769;SDS011;1900;48.890;9.190;2022-12-07T17:05:41;14.10;;;8.20;;
3769;SDS011;1900;48.890;9.190;2022-12-07T17:08:09;14.87;;;8.70;;
3769;SDS011;1900;48.890;9.190;2022-12-07T17:10:37;18.07;;;8.90;;
3769;SDS011;1900;48.890;9.190;2022-12-07T17:13:04;16.33;;;8.50;;
3769;SDS011;1900;48.890;9.190;2022-12-07T17:16:04;17.37;;;9.23;;
3769;SDS011;1900;48.890;9.190;2022-12-07T17:18:32;16.80;;;8.13;;
3769;SDS011;1900;48.890;9.190;2022-12-07T17:21:03;13.80;;;8.60;;
3769;SDS011;1900;48.890;9.190;2022-12-07T17:23:30;13.00;;;7.40;;
3769;SDS011;1900;48.890;9.190;2022-12-07T17:26:03;14.77;;;8.10;;
3769;SDS011;1900;48.890;9.190;2022-12-07T17:28:31;12.83;;;8.00;;
3769;SDS011;1900;48.890;9.190;2022-12-07T17:30:57;14.60;;;9.67;;
3769;SDS011;1900;48.890;9.190;2022-12-07T17:33:22;14.13;;;8.83;;
3769;SDS011;1900;48.890;9.190;2022-12-07T17:35:48;15.43;;;9.57;;
3769;SDS011;1900;48.890;9.190;2022-12-07T17:38:14;15.17;;;8.97;;
3769;SDS011;1900;48.890;9.190;2022-12-07T17:40:39;14.93;;;9.40;;
3769;SDS011;1900;48.890;9.190;2022-12-07T17:43:05;13.60;;;9.50;;
3769;SDS011;1900;48.890;9.190;2022-12-07T17:45:31;11.53;;;8.10;;
3769;SDS011;1900;48.890;9.190;2022-12-07T17:48:00;11.30;;;7.07;;
3769;SDS011;1900;48.890;9.190;2022-12-07T17:50:26;13.13;;;8.57;;
3769;SDS011;1900;48.890;9.190;2022-12-07T17:53:15;12.30;;;8.10;;
3769;SDS011;1900;48.890;9.190;2022-12-07T17:55:40;11.90;;;7.47;;